Benjamin Walters — WDG2963 — position and weather

sailwx.info

Track history (hours):
 
Tides and Currents Weather Stations Pressure Air Temp Water Temp Dewpoint Dewpoint Depression Visibility Wind Speed Wind Dir Waves Ship Positions

Benjamin Walters

Owner: Stimmel, Lee D, San Francisco, CA. More information available from US FCC via Universal Licensing System and Coast Guard Vessel Documentation Center.

Last reported at 2018-Jun-24 07:29 UTC. Time now 2018-Jun-24 07:28 UTC.
Position N 37°52' W 122°19'.

Length 22 m.

Type: Sailing vessel. MMSI: 367521060.

Date/timePositionNaut miles runAvg speedWind from/ knotsBaromVisibWave heightAir tempDewpointWater temp
2018-Jun-24 07:29N 37°52' W 122°19'0 0.0
2018-Jun-24 06:56N 37°52' W 122°19'0 0.0
2018-Jun-24 06:29N 37°52' W 122°19'0 0.0
2018-Jun-24 05:59N 37°52' W 122°19'0 0.0
2018-Jun-24 05:26N 37°52' W 122°19'0 0.0
2018-Jun-24 04:59N 37°52' W 122°19'0 0.0
2018-Jun-24 04:29N 37°52' W 122°19'0 0.0
2018-Jun-24 03:59N 37°52' W 122°19'0 0.0
2018-Jun-24 03:26N 37°52' W 122°19'0 0.0
2018-Jun-24 02:59N 37°52' W 122°19'0 0.0
2018-Jun-24 02:26N 37°52' W 122°19'0 0.0
2018-Jun-24 01:59N 37°52' W 122°19'0 0.0
2018-Jun-24 01:20N 37°52' W 122°19'0 0.0
2018-Jun-24 00:59N 37°52' W 122°19'0 0.0
2018-Jun-24 00:29N 37°52' W 122°19'0 0.0
2018-Jun-23 23:53N 37°52' W 122°19'0 0.0
2018-Jun-23 23:29N 37°52' W 122°19'0 0.3
2018-Jun-23 23:00N 37°52' W 122°19'2 4.1
2018-Jun-23 22:30N 37°52' W 122°22'1 2.9
2018-Jun-23 22:00N 37°53' W 122°23'3 5.2
2018-Jun-23 21:30N 37°52' W 122°20'2 4.9
2018-Jun-23 21:00N 37°53' W 122°23'1 1.2
2018-Jun-23 20:30N 37°52' W 122°23'0 0.9
2018-Jun-23 20:00N 37°52' W 122°23'1 1.2
2018-Jun-23 19:30N 37°53' W 122°24'2 3.9
2018-Jun-23 19:00N 37°51' W 122°22'2 3.2
2018-Jun-23 18:30N 37°52' W 122°20'1 2.1
2018-Jun-23 17:59N 37°52' W 122°19'0 0.0
2018-Jun-23 17:19N 37°52' W 122°19'0 0.0
2018-Jun-23 16:58N 37°52' W 122°19'0 0.0
2018-Jun-23 16:28N 37°52' W 122°19'0 0.0
2018-Jun-23 15:49N 37°52' W 122°19'  
2018-Jun-20 21:44N 37°52' W 122°19'0 0.0
2018-Jun-20 21:21N 37°52' W 122°19'1 1.5
2018-Jun-20 20:56N 37°52' W 122°20'1 1.3
2018-Jun-20 20:28N 37°52' W 122°19'0 0.0
2018-Jun-20 19:59N 37°52' W 122°19'1 2.4
2018-Jun-20 19:30N 37°52' W 122°20'3 6.6
2018-Jun-20 19:00N 37°52' W 122°24'1 1.9
2018-Jun-20 18:30N 37°51' W 122°25'1 1.8
2018-Jun-20 17:59N 37°52' W 122°23'2 4.5
2018-Jun-20 17:30N 37°52' W 122°21'1 2.5
2018-Jun-20 16:56N 37°52' W 122°19'0 0.0
2018-Jun-20 16:29N 37°52' W 122°19'  
2018-Jun-17 20:45N 37°52' W 122°19'0 0.0
2018-Jun-17 20:27N 37°52' W 122°19'0 0.0
2018-Jun-17 20:00N 37°52' W 122°19'0 0.0
2018-Jun-17 19:30N 37°52' W 122°19'0 0.0
2018-Jun-17 19:00N 37°52' W 122°19'0 0.0
2018-Jun-17 18:30N 37°52' W 122°19'0 0.0
2018-Jun-17 18:00N 37°52' W 122°19'0 0.0
2018-Jun-17 17:28N 37°52' W 122°19'0 0.0
2018-Jun-17 16:58N 37°52' W 122°19'0 0.0
2018-Jun-17 16:25N 37°52' W 122°19'0 0.0
2018-Jun-17 15:58N 37°52' W 122°19'0 0.0
2018-Jun-17 15:25N 37°52' W 122°19'0 0.0
2018-Jun-17 14:55N 37°52' W 122°19'0 0.0
2018-Jun-17 14:25N 37°52' W 122°19'0 0.0
2018-Jun-17 13:55N 37°52' W 122°19'0 0.0
2018-Jun-17 13:25N 37°52' W 122°19'0 0.0
2018-Jun-17 12:55N 37°52' W 122°19'0 0.0
2018-Jun-17 12:25N 37°52' W 122°19'0 0.0
2018-Jun-17 11:55N 37°52' W 122°19'0 0.0
2018-Jun-17 11:25N 37°52' W 122°19'0 0.0
2018-Jun-17 10:55N 37°52' W 122°19'0 0.0
2018-Jun-17 10:25N 37°52' W 122°19'0 0.0
2018-Jun-17 09:55N 37°52' W 122°19'0 0.0
2018-Jun-17 09:28N 37°52' W 122°19'0 0.0
2018-Jun-17 08:55N 37°52' W 122°19'0 0.0
2018-Jun-17 08:28N 37°52' W 122°19'0 0.0
2018-Jun-17 07:49N 37°52' W 122°19'0 0.0
2018-Jun-17 07:13N 37°52' W 122°19'0 0.0
2018-Jun-17 06:55N 37°52' W 122°19'0 0.0
2018-Jun-17 06:25N 37°52' W 122°19'0 0.0
2018-Jun-17 05:49N 37°52' W 122°19'0 0.0
2018-Jun-17 05:28N 37°52' W 122°19'0 0.0
2018-Jun-17 04:55N 37°52' W 122°19'0 0.0
2018-Jun-17 04:25N 37°52' W 122°19'0 0.0
2018-Jun-17 03:55N 37°52' W 122°19'0 0.0
2018-Jun-17 03:25N 37°52' W 122°19'0 0.0
2018-Jun-17 02:55N 37°52' W 122°19'0 0.0
2018-Jun-17 02:22N 37°52' W 122°19'0 0.0
2018-Jun-17 01:55N 37°52' W 122°19'0 0.0
2018-Jun-17 01:28N 37°52' W 122°19'0 0.0
2018-Jun-17 00:52N 37°52' W 122°19'0 0.0
2018-Jun-17 00:25N 37°52' W 122°19'0 0.0
2018-Jun-16 23:58N 37°52' W 122°19'0 0.0
2018-Jun-16 23:28N 37°52' W 122°19'0 0.0
2018-Jun-16 22:58N 37°52' W 122°19'0 0.0
2018-Jun-16 22:28N 37°52' W 122°19'0 0.0
2018-Jun-16 21:55N 37°52' W 122°19'0 0.0
2018-Jun-16 21:28N 37°52' W 122°19'0 0.0
2018-Jun-16 20:46N 37°52' W 122°19'0 0.0
2018-Jun-16 20:16N 37°52' W 122°19'0 0.0
2018-Jun-16 19:58N 37°52' W 122°19'0 0.0
2018-Jun-16 19:27N 37°52' W 122°19'0 0.0
2018-Jun-16 18:57N 37°52' W 122°19'0 0.0
2018-Jun-16 18:29N 37°52' W 122°19'0 0.0
2018-Jun-16 17:59N 37°52' W 122°19'0 0.0
2018-Jun-16 17:29N 37°52' W 122°19'0 0.0
2018-Jun-16 16:59N 37°52' W 122°19'0 0.0
2018-Jun-16 16:29N 37°52' W 122°19'0 0.0
2018-Jun-16 15:59N 37°52' W 122°19'0 0.0
2018-Jun-16 15:26N 37°52' W 122°19'0 0.0
2018-Jun-16 14:56N 37°52' W 122°19'0 0.0
2018-Jun-16 14:26N 37°52' W 122°19'0 0.0
2018-Jun-16 13:50N 37°52' W 122°19'0 0.0
2018-Jun-16 13:26N 37°52' W 122°19'0 0.0
2018-Jun-16 12:59N 37°52' W 122°19'0 0.0
2018-Jun-16 12:23N 37°52' W 122°19'0 0.0
2018-Jun-16 11:56N 37°52' W 122°19'0 0.0
2018-Jun-16 11:26N 37°52' W 122°19'0 0.0
2018-Jun-16 10:56N 37°52' W 122°19'0 0.0
2018-Jun-16 10:23N 37°52' W 122°19'0 0.0
2018-Jun-16 09:50N 37°52' W 122°19'0 0.0
2018-Jun-16 09:26N 37°52' W 122°19'0 0.0
2018-Jun-16 08:59N 37°52' W 122°19'0 0.0
2018-Jun-16 08:29N 37°52' W 122°19'0 0.0
2018-Jun-16 07:56N 37°52' W 122°19'0 0.0
2018-Jun-16 07:20N 37°52' W 122°19'0 0.0
2018-Jun-16 06:53N 37°52' W 122°19'0 0.0
2018-Jun-16 06:29N 37°52' W 122°19'0 0.0
2018-Jun-16 05:59N 37°52' W 122°19'0 0.0
2018-Jun-16 05:26N 37°52' W 122°19'0 0.0
2018-Jun-16 04:59N 37°52' W 122°19'0 0.0
2018-Jun-16 04:26N 37°52' W 122°19'0 0.0
2018-Jun-16 03:56N 37°52' W 122°19'0 0.0
2018-Jun-16 03:29N 37°52' W 122°19'0 0.0
2018-Jun-16 02:59N 37°52' W 122°19'0 0.0
2018-Jun-16 02:23N 37°52' W 122°19'0 0.0
2018-Jun-16 01:59N 37°52' W 122°19'0 0.0
2018-Jun-16 01:23N 37°52' W 122°19'0 0.0
2018-Jun-16 00:56N 37°52' W 122°19'0 0.0
2018-Jun-16 00:29N 37°52' W 122°19'0 0.0
2018-Jun-15 23:59N 37°52' W 122°19'0 0.0
2018-Jun-15 23:29N 37°52' W 122°19'0 0.0
2018-Jun-15 22:59N 37°52' W 122°19'0 0.0
2018-Jun-15 22:26N 37°52' W 122°19'0 0.0
2018-Jun-15 21:56N 37°52' W 122°19'0 0.0
2018-Jun-15 21:29N 37°52' W 122°19'0 0.0
2018-Jun-15 20:56N 37°52' W 122°19'0 0.0
2018-Jun-15 20:29N 37°52' W 122°19'0 0.0
2018-Jun-15 19:49N 37°52' W 122°19'0 0.0
2018-Jun-15 19:28N 37°52' W 122°19'0 0.0
2018-Jun-15 18:58N 37°52' W 122°19'0 0.0
2018-Jun-15 18:25N 37°52' W 122°19'0 0.0
2018-Jun-15 17:46N 37°52' W 122°19'0 0.0
2018-Jun-15 17:28N 37°52' W 122°19'0 0.0
2018-Jun-15 16:52N 37°52' W 122°19'0 0.0
2018-Jun-15 16:25N 37°52' W 122°19'0 0.0
2018-Jun-15 15:55N 37°52' W 122°19'0 0.0
2018-Jun-15 15:28N 37°52' W 122°19'0 0.0
2018-Jun-15 14:46N 37°52' W 122°19'0 0.0
2018-Jun-15 14:28N 37°52' W 122°19'0 0.0
2018-Jun-15 13:58N 37°52' W 122°19'0 0.0
2018-Jun-15 13:28N 37°52' W 122°19'0 0.0
2018-Jun-15 12:52N 37°52' W 122°19'0 0.0
2018-Jun-15 12:28N 37°52' W 122°19'0 0.0
2018-Jun-15 11:55N 37°52' W 122°19'0 0.0
2018-Jun-15 11:29N 37°52' W 122°19'0 0.0
2018-Jun-15 10:56N 37°52' W 122°19'0 0.0
2018-Jun-15 10:26N 37°52' W 122°19'0 0.0
2018-Jun-15 09:50N 37°52' W 122°19'0 0.0
2018-Jun-15 09:29N 37°52' W 122°19'0 0.0
2018-Jun-15 08:56N 37°52' W 122°19'0 0.0
2018-Jun-15 08:26N 37°52' W 122°19'0 0.0
2018-Jun-15 07:59N 37°52' W 122°19'0 0.0
2018-Jun-15 07:26N 37°52' W 122°19'0 0.0
2018-Jun-15 06:59N 37°52' W 122°19'0 0.0
2018-Jun-15 06:23N 37°52' W 122°19'0 0.0
2018-Jun-15 05:59N 37°52' W 122°19'0 0.0
2018-Jun-15 05:26N 37°52' W 122°19'0 0.0
2018-Jun-15 04:58N 37°52' W 122°19'0 0.0
2018-Jun-15 04:25N 37°52' W 122°19'0 0.0
2018-Jun-15 03:58N 37°52' W 122°19'0 0.0
2018-Jun-15 03:28N 37°52' W 122°19'0 0.0
2018-Jun-15 02:58N 37°52' W 122°19'0 0.0
2018-Jun-15 02:28N 37°52' W 122°19'0 0.0
2018-Jun-15 01:58N 37°52' W 122°19'0 0.0
2018-Jun-15 01:25N 37°52' W 122°19'0 0.0
2018-Jun-15 00:58N 37°52' W 122°19'0 0.0
2018-Jun-15 00:28N 37°52' W 122°19'0 0.0
2018-Jun-14 23:58N 37°52' W 122°19'0 0.0
2018-Jun-14 23:28N 37°52' W 122°19'0 0.0
2018-Jun-14 22:58N 37°52' W 122°19'0 0.0
2018-Jun-14 22:28N 37°52' W 122°19'0 0.0
2018-Jun-14 21:58N 37°52' W 122°19'0 0.0
2018-Jun-14 21:28N 37°52' W 122°19'0 0.0
2018-Jun-14 20:58N 37°52' W 122°19'0 0.0
2018-Jun-14 20:28N 37°52' W 122°19'0 0.0
2018-Jun-14 19:58N 37°52' W 122°19'0 0.0
2018-Jun-14 19:22N 37°52' W 122°19'0 0.0
2018-Jun-14 18:58N 37°52' W 122°19'0 0.0
2018-Jun-14 18:28N 37°52' W 122°19'0 0.0
2018-Jun-14 17:58N 37°52' W 122°19'0 0.0
2018-Jun-14 17:25N 37°52' W 122°19'0 0.0
2018-Jun-14 16:58N 37°52' W 122°19'0 0.0
2018-Jun-14 16:28N 37°52' W 122°19'0 0.0
2018-Jun-14 15:52N 37°52' W 122°19'0 0.0
2018-Jun-14 15:19N 37°52' W 122°19'0 0.0
2018-Jun-14 14:55N 37°52' W 122°19'0 0.0
2018-Jun-14 14:25N 37°52' W 122°19'0 0.0
2018-Jun-14 13:55N 37°52' W 122°19'0 0.0
2018-Jun-14 13:28N 37°52' W 122°19'0 0.0
2018-Jun-14 12:55N 37°52' W 122°19'0 0.0
2018-Jun-14 12:25N 37°52' W 122°19'0 0.0
2018-Jun-14 11:55N 37°52' W 122°19'0 0.0
2018-Jun-14 11:19N 37°52' W 122°19'0 0.0
2018-Jun-14 10:55N 37°52' W 122°19'0 0.0
2018-Jun-14 10:28N 37°52' W 122°19'0 0.0
2018-Jun-14 09:55N 37°52' W 122°19'0 0.0
2018-Jun-14 09:25N 37°52' W 122°19'0 0.0
2018-Jun-14 08:58N 37°52' W 122°19'0 0.0
2018-Jun-14 08:13N 37°52' W 122°19'0 0.0
2018-Jun-14 07:55N 37°52' W 122°19'  
Track history (hours):
 
Tides and Currents Weather Stations Pressure Air Temp Water Temp Dewpoint Dewpoint Depression Visibility Wind Speed Wind Dir Waves Ship Positions

Benjamin Walters

Owner: Stimmel, Lee D, San Francisco, CA. More information available from US FCC via Universal Licensing System and Coast Guard Vessel Documentation Center.

Last reported at 2018-Jun-24 07:29 UTC. Time now 2018-Jun-24 07:28 UTC.
Position N 37°52' W 122°19'.

Length 22 m.

Type: Sailing vessel. MMSI: 367521060.

Date/timePositionNaut miles runAvg speedWind from/ knotsBaromVisibWave heightAir tempDewpointWater temp
2018-Jun-24 07:29N 37°52' W 122°19'0 0.0
2018-Jun-24 06:56N 37°52' W 122°19'0 0.0
2018-Jun-24 06:29N 37°52' W 122°19'0 0.0
2018-Jun-24 05:59N 37°52' W 122°19'0 0.0
2018-Jun-24 05:26N 37°52' W 122°19'0 0.0
2018-Jun-24 04:59N 37°52' W 122°19'0 0.0
2018-Jun-24 04:29N 37°52' W 122°19'0 0.0
2018-Jun-24 03:59N 37°52' W 122°19'0 0.0
2018-Jun-24 03:26N 37°52' W 122°19'0 0.0
2018-Jun-24 02:59N 37°52' W 122°19'0 0.0
2018-Jun-24 02:26N 37°52' W 122°19'0 0.0
2018-Jun-24 01:59N 37°52' W 122°19'0 0.0
2018-Jun-24 01:20N 37°52' W 122°19'0 0.0
2018-Jun-24 00:59N 37°52' W 122°19'0 0.0
2018-Jun-24 00:29N 37°52' W 122°19'0 0.0
2018-Jun-23 23:53N 37°52' W 122°19'0 0.0
2018-Jun-23 23:29N 37°52' W 122°19'0 0.3
2018-Jun-23 23:00N 37°52' W 122°19'2 4.1
2018-Jun-23 22:30N 37°52' W 122°22'1 2.9
2018-Jun-23 22:00N 37°53' W 122°23'3 5.2
2018-Jun-23 21:30N 37°52' W 122°20'2 4.9
2018-Jun-23 21:00N 37°53' W 122°23'1 1.2
2018-Jun-23 20:30N 37°52' W 122°23'0 0.9
2018-Jun-23 20:00N 37°52' W 122°23'1 1.2
2018-Jun-23 19:30N 37°53' W 122°24'2 3.9
2018-Jun-23 19:00N 37°51' W 122°22'2 3.2
2018-Jun-23 18:30N 37°52' W 122°20'1 2.1
2018-Jun-23 17:59N 37°52' W 122°19'0 0.0
2018-Jun-23 17:19N 37°52' W 122°19'0 0.0
2018-Jun-23 16:58N 37°52' W 122°19'0 0.0
2018-Jun-23 16:28N 37°52' W 122°19'0 0.0
2018-Jun-23 15:49N 37°52' W 122°19'  
2018-Jun-20 21:44N 37°52' W 122°19'0 0.0
2018-Jun-20 21:21N 37°52' W 122°19'1 1.5
2018-Jun-20 20:56N 37°52' W 122°20'1 1.3
2018-Jun-20 20:28N 37°52' W 122°19'0 0.0
2018-Jun-20 19:59N 37°52' W 122°19'1 2.4
2018-Jun-20 19:30N 37°52' W 122°20'3 6.6
2018-Jun-20 19:00N 37°52' W 122°24'1 1.9
2018-Jun-20 18:30N 37°51' W 122°25'1 1.8
2018-Jun-20 17:59N 37°52' W 122°23'2 4.5
2018-Jun-20 17:30N 37°52' W 122°21'1 2.5
2018-Jun-20 16:56N 37°52' W 122°19'0 0.0
2018-Jun-20 16:29N 37°52' W 122°19'  
2018-Jun-17 20:45N 37°52' W 122°19'0 0.0
2018-Jun-17 20:27N 37°52' W 122°19'0 0.0
2018-Jun-17 20:00N 37°52' W 122°19'0 0.0
2018-Jun-17 19:30N 37°52' W 122°19'0 0.0
2018-Jun-17 19:00N 37°52' W 122°19'0 0.0
2018-Jun-17 18:30N 37°52' W 122°19'0 0.0
2018-Jun-17 18:00N 37°52' W 122°19'0 0.0
2018-Jun-17 17:28N 37°52' W 122°19'0 0.0
2018-Jun-17 16:58N 37°52' W 122°19'0 0.0
2018-Jun-17 16:25N 37°52' W 122°19'0 0.0
2018-Jun-17 15:58N 37°52' W 122°19'0 0.0
2018-Jun-17 15:25N 37°52' W 122°19'0 0.0
2018-Jun-17 14:55N 37°52' W 122°19'0 0.0
2018-Jun-17 14:25N 37°52' W 122°19'0 0.0
2018-Jun-17 13:55N 37°52' W 122°19'0 0.0
2018-Jun-17 13:25N 37°52' W 122°19'0 0.0
2018-Jun-17 12:55N 37°52' W 122°19'0 0.0
2018-Jun-17 12:25N 37°52' W 122°19'0 0.0
2018-Jun-17 11:55N 37°52' W 122°19'0 0.0
2018-Jun-17 11:25N 37°52' W 122°19'0 0.0
2018-Jun-17 10:55N 37°52' W 122°19'0 0.0
2018-Jun-17 10:25N 37°52' W 122°19'0 0.0
2018-Jun-17 09:55N 37°52' W 122°19'0 0.0
2018-Jun-17 09:28N 37°52' W 122°19'0 0.0
2018-Jun-17 08:55N 37°52' W 122°19'0 0.0
2018-Jun-17 08:28N 37°52' W 122°19'0 0.0
2018-Jun-17 07:49N 37°52' W 122°19'0 0.0
2018-Jun-17 07:13N 37°52' W 122°19'0 0.0
2018-Jun-17 06:55N 37°52' W 122°19'0 0.0
2018-Jun-17 06:25N 37°52' W 122°19'0 0.0
2018-Jun-17 05:49N 37°52' W 122°19'0 0.0
2018-Jun-17 05:28N 37°52' W 122°19'0 0.0
2018-Jun-17 04:55N 37°52' W 122°19'0 0.0
2018-Jun-17 04:25N 37°52' W 122°19'0 0.0
2018-Jun-17 03:55N 37°52' W 122°19'0 0.0
2018-Jun-17 03:25N 37°52' W 122°19'0 0.0
2018-Jun-17 02:55N 37°52' W 122°19'0 0.0
2018-Jun-17 02:22N 37°52' W 122°19'0 0.0
2018-Jun-17 01:55N 37°52' W 122°19'0 0.0
2018-Jun-17 01:28N 37°52' W 122°19'0 0.0
2018-Jun-17 00:52N 37°52' W 122°19'0 0.0
2018-Jun-17 00:25N 37°52' W 122°19'0 0.0
2018-Jun-16 23:58N 37°52' W 122°19'0 0.0
2018-Jun-16 23:28N 37°52' W 122°19'0 0.0
2018-Jun-16 22:58N 37°52' W 122°19'0 0.0
2018-Jun-16 22:28N 37°52' W 122°19'0 0.0
2018-Jun-16 21:55N 37°52' W 122°19'0 0.0
2018-Jun-16 21:28N 37°52' W 122°19'0 0.0
2018-Jun-16 20:46N 37°52' W 122°19'0 0.0
2018-Jun-16 20:16N 37°52' W 122°19'0 0.0
2018-Jun-16 19:58N 37°52' W 122°19'0 0.0
2018-Jun-16 19:27N 37°52' W 122°19'0 0.0
2018-Jun-16 18:57N 37°52' W 122°19'0 0.0
2018-Jun-16 18:29N 37°52' W 122°19'0 0.0
2018-Jun-16 17:59N 37°52' W 122°19'0 0.0
2018-Jun-16 17:29N 37°52' W 122°19'0 0.0
2018-Jun-16 16:59N 37°52' W 122°19'0 0.0
2018-Jun-16 16:29N 37°52' W 122°19'0 0.0
2018-Jun-16 15:59N 37°52' W 122°19'0 0.0
2018-Jun-16 15:26N 37°52' W 122°19'0 0.0
2018-Jun-16 14:56N 37°52' W 122°19'0 0.0
2018-Jun-16 14:26N 37°52' W 122°19'0 0.0
2018-Jun-16 13:50N 37°52' W 122°19'0 0.0
2018-Jun-16 13:26N 37°52' W 122°19'0 0.0
2018-Jun-16 12:59N 37°52' W 122°19'0 0.0
2018-Jun-16 12:23N 37°52' W 122°19'0 0.0
2018-Jun-16 11:56N 37°52' W 122°19'0 0.0
2018-Jun-16 11:26N 37°52' W 122°19'0 0.0
2018-Jun-16 10:56N 37°52' W 122°19'0 0.0
2018-Jun-16 10:23N 37°52' W 122°19'0 0.0
2018-Jun-16 09:50N 37°52' W 122°19'0 0.0
2018-Jun-16 09:26N 37°52' W 122°19'0 0.0
2018-Jun-16 08:59N 37°52' W 122°19'0 0.0
2018-Jun-16 08:29N 37°52' W 122°19'0 0.0
2018-Jun-16 07:56N 37°52' W 122°19'0 0.0
2018-Jun-16 07:20N 37°52' W 122°19'0 0.0
2018-Jun-16 06:53N 37°52' W 122°19'0 0.0
2018-Jun-16 06:29N 37°52' W 122°19'0 0.0
2018-Jun-16 05:59N 37°52' W 122°19'0 0.0
2018-Jun-16 05:26N 37°52' W 122°19'0 0.0
2018-Jun-16 04:59N 37°52' W 122°19'0 0.0
2018-Jun-16 04:26N 37°52' W 122°19'0 0.0
2018-Jun-16 03:56N 37°52' W 122°19'0 0.0
2018-Jun-16 03:29N 37°52' W 122°19'0 0.0
2018-Jun-16 02:59N 37°52' W 122°19'0 0.0
2018-Jun-16 02:23N 37°52' W 122°19'0 0.0
2018-Jun-16 01:59N 37°52' W 122°19'0 0.0
2018-Jun-16 01:23N 37°52' W 122°19'0 0.0
2018-Jun-16 00:56N 37°52' W 122°19'0 0.0
2018-Jun-16 00:29N 37°52' W 122°19'0 0.0
2018-Jun-15 23:59N 37°52' W 122°19'0 0.0
2018-Jun-15 23:29N 37°52' W 122°19'0 0.0
2018-Jun-15 22:59N 37°52' W 122°19'0 0.0
2018-Jun-15 22:26N 37°52' W 122°19'0 0.0
2018-Jun-15 21:56N 37°52' W 122°19'0 0.0
2018-Jun-15 21:29N 37°52' W 122°19'0 0.0
2018-Jun-15 20:56N 37°52' W 122°19'0 0.0
2018-Jun-15 20:29N 37°52' W 122°19'0 0.0
2018-Jun-15 19:49N 37°52' W 122°19'0 0.0
2018-Jun-15 19:28N 37°52' W 122°19'0 0.0
2018-Jun-15 18:58N 37°52' W 122°19'0 0.0
2018-Jun-15 18:25N 37°52' W 122°19'0 0.0
2018-Jun-15 17:46N 37°52' W 122°19'0 0.0
2018-Jun-15 17:28N 37°52' W 122°19'0 0.0
2018-Jun-15 16:52N 37°52' W 122°19'0 0.0
2018-Jun-15 16:25N 37°52' W 122°19'0 0.0
2018-Jun-15 15:55N 37°52' W 122°19'0 0.0
2018-Jun-15 15:28N 37°52' W 122°19'0 0.0
2018-Jun-15 14:46N 37°52' W 122°19'0 0.0
2018-Jun-15 14:28N 37°52' W 122°19'0 0.0
2018-Jun-15 13:58N 37°52' W 122°19'0 0.0
2018-Jun-15 13:28N 37°52' W 122°19'0 0.0
2018-Jun-15 12:52N 37°52' W 122°19'0 0.0
2018-Jun-15 12:28N 37°52' W 122°19'0 0.0
2018-Jun-15 11:55N 37°52' W 122°19'0 0.0
2018-Jun-15 11:29N 37°52' W 122°19'0 0.0
2018-Jun-15 10:56N 37°52' W 122°19'0 0.0
2018-Jun-15 10:26N 37°52' W 122°19'0 0.0
2018-Jun-15 09:50N 37°52' W 122°19'0 0.0
2018-Jun-15 09:29N 37°52' W 122°19'0 0.0
2018-Jun-15 08:56N 37°52' W 122°19'0 0.0
2018-Jun-15 08:26N 37°52' W 122°19'0 0.0
2018-Jun-15 07:59N 37°52' W 122°19'0 0.0
2018-Jun-15 07:26N 37°52' W 122°19'0 0.0
2018-Jun-15 06:59N 37°52' W 122°19'0 0.0
2018-Jun-15 06:23N 37°52' W 122°19'0 0.0
2018-Jun-15 05:59N 37°52' W 122°19'0 0.0
2018-Jun-15 05:26N 37°52' W 122°19'0 0.0
2018-Jun-15 04:58N 37°52' W 122°19'0 0.0
2018-Jun-15 04:25N 37°52' W 122°19'0 0.0
2018-Jun-15 03:58N 37°52' W 122°19'0 0.0
2018-Jun-15 03:28N 37°52' W 122°19'0 0.0
2018-Jun-15 02:58N 37°52' W 122°19'0 0.0
2018-Jun-15 02:28N 37°52' W 122°19'0 0.0
2018-Jun-15 01:58N 37°52' W 122°19'0 0.0
2018-Jun-15 01:25N 37°52' W 122°19'0 0.0
2018-Jun-15 00:58N 37°52' W 122°19'0 0.0
2018-Jun-15 00:28N 37°52' W 122°19'0 0.0
2018-Jun-14 23:58N 37°52' W 122°19'0 0.0
2018-Jun-14 23:28N 37°52' W 122°19'0 0.0
2018-Jun-14 22:58N 37°52' W 122°19'0 0.0
2018-Jun-14 22:28N 37°52' W 122°19'0 0.0
2018-Jun-14 21:58N 37°52' W 122°19'0 0.0
2018-Jun-14 21:28N 37°52' W 122°19'0 0.0
2018-Jun-14 20:58N 37°52' W 122°19'0 0.0
2018-Jun-14 20:28N 37°52' W 122°19'0 0.0
2018-Jun-14 19:58N 37°52' W 122°19'0 0.0
2018-Jun-14 19:22N 37°52' W 122°19'0 0.0
2018-Jun-14 18:58N 37°52' W 122°19'0 0.0
2018-Jun-14 18:28N 37°52' W 122°19'0 0.0
2018-Jun-14 17:58N 37°52' W 122°19'0 0.0
2018-Jun-14 17:25N 37°52' W 122°19'0 0.0
2018-Jun-14 16:58N 37°52' W 122°19'0 0.0
2018-Jun-14 16:28N 37°52' W 122°19'0 0.0
2018-Jun-14 15:52N 37°52' W 122°19'0 0.0
2018-Jun-14 15:19N 37°52' W 122°19'0 0.0
2018-Jun-14 14:55N 37°52' W 122°19'0 0.0
2018-Jun-14 14:25N 37°52' W 122°19'0 0.0
2018-Jun-14 13:55N 37°52' W 122°19'0 0.0
2018-Jun-14 13:28N 37°52' W 122°19'0 0.0
2018-Jun-14 12:55N 37°52' W 122°19'0 0.0
2018-Jun-14 12:25N 37°52' W 122°19'0 0.0
2018-Jun-14 11:55N 37°52' W 122°19'0 0.0
2018-Jun-14 11:19N 37°52' W 122°19'0 0.0
2018-Jun-14 10:55N 37°52' W 122°19'0 0.0
2018-Jun-14 10:28N 37°52' W 122°19'0 0.0
2018-Jun-14 09:55N 37°52' W 122°19'0 0.0
2018-Jun-14 09:25N 37°52' W 122°19'0 0.0
2018-Jun-14 08:58N 37°52' W 122°19'0 0.0
2018-Jun-14 08:13N 37°52' W 122°19'0 0.0
2018-Jun-14 07:55N 37°52' W 122°19'  

Dump ship's entire track history